createdAt,value
2023-03-04T00:00:47.645Z,101328.91
2023-03-04T00:02:50.796Z,101330.78
2023-03-04T00:04:52.465Z,101333.16
2023-03-04T00:06:55.306Z,101325.63
2023-03-04T00:08:57.058Z,101334.09
2023-03-04T00:10:58.818Z,101331.84
2023-03-04T00:13:00.392Z,101331.41
2023-03-04T00:15:02.071Z,101335.06
2023-03-04T00:17:03.737Z,101339.59
2023-03-04T00:19:06.618Z,101342.28
2023-03-04T00:21:08.314Z,101333.75
2023-03-04T00:23:10.022Z,101341.00
2023-03-04T00:25:11.569Z,101331.31
2023-03-04T00:27:13.146Z,101342.59
2023-03-04T00:29:14.782Z,101337.34
2023-03-04T00:31:16.531Z,101337.09
2023-03-04T00:33:18.329Z,101337.81
2023-03-04T00:35:21.399Z,101342.38
2023-03-04T00:37:23.091Z,101341.69
2023-03-04T00:39:24.847Z,101339.63
2023-03-04T00:41:26.441Z,101342.00
2023-03-04T00:43:28.049Z,101345.97
2023-03-04T00:45:29.815Z,101347.63
2023-03-04T00:47:31.399Z,101350.03
2023-03-04T00:49:33.131Z,101348.31
2023-03-04T00:51:36.303Z,101348.44
2023-03-04T00:53:37.877Z,101348.66
2023-03-04T00:55:39.535Z,101348.66
2023-03-04T00:57:41.095Z,101347.97
2023-03-04T00:59:42.892Z,101345.97
2023-03-04T01:01:46.478Z,101348.31
2023-03-04T01:03:48.122Z,101348.09
2023-03-04T01:05:49.778Z,101344.22
2023-03-04T01:07:52.812Z,101350.88
2023-03-04T01:09:54.521Z,101351.69
2023-03-04T01:11:56.198Z,101340.50
2023-03-04T01:13:57.785Z,101344.22
2023-03-04T01:15:59.471Z,101343.88
2023-03-04T01:18:01.289Z,101347.28
2023-03-04T01:20:04.019Z,101344.00
2023-03-04T01:22:05.668Z,101340.72
2023-03-04T01:24:09.036Z,101339.09
2023-03-04T01:26:10.604Z,101333.41
2023-03-04T01:28:12.156Z,101332.22
2023-03-04T01:30:13.954Z,101332.31
2023-03-04T01:32:15.645Z,101331.50
2023-03-04T01:34:17.192Z,101331.50
2023-03-04T01:36:18.769Z,101326.72
2023-03-04T01:38:20.468Z,101334.13
2023-03-04T01:40:23.680Z,101326.75
2023-03-04T01:42:27.585Z,101322.53
2023-03-04T01:44:29.313Z,101320.56
2023-03-04T01:46:32.011Z,101323.97
2023-03-04T01:48:37.112Z,101321.88
2023-03-04T01:50:38.942Z,101323.81
2023-03-04T01:52:41.084Z,101323.47
2023-03-04T01:54:42.785Z,101318.31
2023-03-04T01:56:47.596Z,101323.91
2023-03-04T01:59:07.485Z,101313.81
2023-03-04T02:01:10.426Z,101311.88
2023-03-04T02:05:17.445Z,101320.16
2023-03-04T02:07:19.060Z,101317.16
2023-03-04T02:09:21.418Z,101313.00
2023-03-04T02:11:23.284Z,101310.94
2023-03-04T02:13:26.499Z,101310.34
2023-03-04T02:15:29.131Z,101313.91
2023-03-04T02:17:35.208Z,101304.13
2023-03-04T02:19:47.821Z,101299.19
2023-03-04T02:21:49.707Z,101300.41
2023-03-04T02:23:59.552Z,101294.09
2023-03-04T02:26:20.818Z,101298.41
2023-03-04T02:28:22.460Z,101300.69
2023-03-04T02:30:25.130Z,101295.84
2023-03-04T02:32:26.915Z,101295.66
2023-03-04T02:34:31.178Z,101294.50
2023-03-04T02:36:34.746Z,101292.81
2023-03-04T02:38:36.367Z,101291.31
2023-03-04T02:40:41.458Z,101288.88
2023-03-04T02:42:45.291Z,101292.00
2023-03-04T02:44:47.774Z,101285.09
2023-03-04T02:46:50.710Z,101295.56
2023-03-04T02:48:52.756Z,101293.75
2023-03-04T02:50:55.231Z,101286.34
2023-03-04T02:52:56.844Z,101288.94
2023-03-04T02:54:58.432Z,101291.31
2023-03-04T02:57:02.326Z,101287.09
2023-03-04T02:59:05.241Z,101288.50
2023-03-04T03:01:06.824Z,101293.06
2023-03-04T03:03:09.186Z,101285.09
2023-03-04T03:05:12.761Z,101279.97
2023-03-04T03:07:14.360Z,101281.09
2023-03-04T03:09:16.538Z,101277.00
2023-03-04T03:11:18.121Z,101278.56
2023-03-04T03:13:19.751Z,101283.47
2023-03-04T03:15:22.779Z,101282.19
2023-03-04T03:17:24.400Z,101272.84
2023-03-04T03:19:25.992Z,101274.53
2023-03-04T03:21:27.735Z,101276.94
2023-03-04T03:23:29.264Z,101279.38
2023-03-04T03:25:30.948Z,101277.91
2023-03-04T03:27:32.589Z,101276.19
2023-03-04T03:29:34.208Z,101283.97
2023-03-04T03:31:37.155Z,101273.19
2023-03-04T03:33:38.860Z,101279.16
2023-03-04T03:35:40.453Z,101275.78
2023-03-04T03:37:41.986Z,101279.63
2023-03-04T03:39:43.753Z,101274.88
2023-03-04T03:41:45.356Z,101279.63
2023-03-04T03:43:46.859Z,101283.13
2023-03-04T03:45:48.469Z,101283.13
2023-03-04T03:47:51.441Z,101285.38
2023-03-04T03:49:53.008Z,101282.91
2023-03-04T03:51:54.646Z,101291.16
2023-03-04T03:53:56.197Z,101284.41
2023-03-04T03:55:57.777Z,101284.53
2023-03-04T03:57:59.376Z,101289.44
2023-03-04T04:00:01.416Z,101288.63
2023-03-04T04:02:03.237Z,101283.72
2023-03-04T04:04:06.362Z,101282.47
2023-03-04T04:06:08.118Z,101284.78
2023-03-04T04:08:12.718Z,101289.28
2023-03-04T04:10:14.328Z,101285.44
2023-03-04T04:12:16.848Z,101281.28
2023-03-04T04:14:18.390Z,101282.31
2023-03-04T04:16:19.956Z,101281.50
2023-03-04T04:18:21.728Z,101280.47
2023-03-04T04:20:26.316Z,101279.06
2023-03-04T04:22:28.193Z,101279.88
2023-03-04T04:24:30.045Z,101283.22
2023-03-04T04:26:31.634Z,101274.38
2023-03-04T04:28:33.548Z,101278.91
2023-03-04T04:30:35.421Z,101277.56
2023-03-04T04:32:37.004Z,101279.06
2023-03-04T04:34:38.719Z,101275.78
2023-03-04T04:36:41.588Z,101282.03
2023-03-04T04:38:43.418Z,101274.38
2023-03-04T04:40:44.995Z,101284.84
2023-03-04T04:42:46.546Z,101284.25
2023-03-04T04:44:48.140Z,101285.63
2023-03-04T04:46:49.851Z,101286.06
2023-03-04T04:48:51.431Z,101283.25
2023-03-04T04:51:02.051Z,101288.19
2023-03-04T04:53:05.152Z,101286.19
2023-03-04T04:55:07.320Z,101288.28
2023-03-04T04:57:08.933Z,101286.66
2023-03-04T04:59:10.698Z,101287.47
2023-03-04T05:01:12.904Z,101292.00
2023-03-04T05:03:16.293Z,101287.47
2023-03-04T05:05:19.327Z,101290.16
2023-03-04T05:07:21.063Z,101289.72
2023-03-04T05:09:24.013Z,101295.06
2023-03-04T05:11:25.699Z,101291.84
2023-03-04T05:13:27.850Z,101292.50
2023-03-04T05:15:29.454Z,101290.69
2023-03-04T05:17:31.067Z,101286.97
2023-03-04T05:19:32.602Z,101291.03
2023-03-04T05:21:34.317Z,101287.09
2023-03-04T05:23:38.998Z,101287.25
2023-03-04T05:25:41.895Z,101297.34
2023-03-04T05:27:43.901Z,101299.66
2023-03-04T05:29:45.474Z,101297.78
2023-03-04T05:31:47.097Z,101288.88
2023-03-04T05:33:48.741Z,101284.34
2023-03-04T05:35:50.932Z,101286.22
2023-03-04T05:37:52.612Z,101287.00
2023-03-04T05:39:54.369Z,101282.69
2023-03-04T05:41:57.337Z,101289.31
2023-03-04T05:43:58.997Z,101284.84
2023-03-04T05:46:00.563Z,101282.19
2023-03-04T05:48:02.170Z,101280.09
2023-03-04T05:50:03.943Z,101285.44
2023-03-04T05:52:05.508Z,101279.66
2023-03-04T05:54:07.175Z,101281.31
2023-03-04T05:56:09.949Z,101292.00
2023-03-04T05:58:12.982Z,101283.53
2023-03-04T06:00:16.034Z,101286.13
2023-03-04T06:02:17.573Z,101286.94
2023-03-04T06:04:19.202Z,101292.53
2023-03-04T06:06:20.926Z,101293.03
2023-03-04T06:08:22.674Z,101297.13
2023-03-04T06:10:24.229Z,101299.28
2023-03-04T06:12:26.110Z,101296.03
2023-03-04T06:14:29.023Z,101305.06
2023-03-04T06:16:30.694Z,101310.13
2023-03-04T06:18:32.381Z,101313.22
2023-03-04T06:20:33.975Z,101307.09
2023-03-04T06:22:35.589Z,101314.94
2023-03-04T06:24:37.616Z,101311.03
2023-03-04T06:26:39.267Z,101307.69
2023-03-04T06:28:40.951Z,101315.91
2023-03-04T06:30:43.939Z,101317.69
2023-03-04T06:32:45.674Z,101318.88
2023-03-04T06:34:47.323Z,101333.31
2023-03-04T06:36:48.929Z,101326.91
2023-03-04T06:38:50.483Z,101324.00
2023-03-04T06:40:52.416Z,101324.81
2023-03-04T06:42:54.176Z,101325.03
2023-03-04T06:44:55.831Z,101328.53
2023-03-04T06:46:58.835Z,101336.84
2023-03-04T06:49:00.580Z,101324.97
2023-03-04T06:51:05.876Z,101333.22
2023-03-04T06:53:07.474Z,101335.25
2023-03-04T06:55:09.887Z,101332.94
2023-03-04T06:57:11.612Z,101340.13
2023-03-04T06:59:13.374Z,101344.88
2023-03-04T07:01:17.238Z,101342.44
2023-03-04T07:03:20.198Z,101341.47
2023-03-04T07:05:21.791Z,101345.69
2023-03-04T07:07:23.425Z,101341.22
2023-03-04T07:09:25.119Z,101341.22
2023-03-04T07:11:26.873Z,101348.00
2023-03-04T07:13:28.433Z,101350.91
2023-03-04T07:15:30.201Z,101347.25
2023-03-04T07:17:31.771Z,101347.09
2023-03-04T07:19:34.731Z,101348.59
2023-03-04T07:21:36.317Z,101356.19
2023-03-04T07:23:37.923Z,101354.69
2023-03-04T07:25:39.520Z,101356.53
2023-03-04T07:27:41.219Z,101349.94
2023-03-04T07:29:42.943Z,101354.19
2023-03-04T07:31:44.592Z,101360.25
2023-03-04T07:33:46.403Z,101366.13
2023-03-04T07:35:49.295Z,101355.19
2023-03-04T07:37:51.012Z,101370.00
2023-03-04T07:39:52.585Z,101368.56
2023-03-04T07:41:54.068Z,101376.41
2023-03-04T07:43:56.942Z,101375.94
2023-03-04T07:46:00.464Z,101372.81
2023-03-04T07:48:02.173Z,101368.50
2023-03-04T07:50:04.530Z,101376.16
2023-03-04T07:52:07.572Z,101378.38
2023-03-04T07:54:09.746Z,101376.31
2023-03-04T07:56:13.321Z,101371.13
2023-03-04T07:58:14.888Z,101373.31
2023-03-04T08:00:17.511Z,101377.19
2023-03-04T08:02:19.257Z,101375.13
2023-03-04T08:04:20.885Z,101380.91
2023-03-04T08:06:23.044Z,101379.63
2023-03-04T08:08:26.028Z,101380.91
2023-03-04T08:10:27.722Z,101382.25
2023-03-04T08:12:29.352Z,101389.31
2023-03-04T08:14:30.962Z,101383.34
2023-03-04T08:16:32.981Z,101388.03
2023-03-04T08:18:34.629Z,101385.53
2023-03-04T08:20:36.300Z,101387.38
2023-03-04T08:22:39.934Z,101388.34
2023-03-04T08:24:42.847Z,101385.91
2023-03-04T08:26:46.692Z,101388.72
2023-03-04T08:28:48.418Z,101380.59
2023-03-04T08:30:53.644Z,101389.91
2023-03-04T08:32:55.187Z,101378.75
2023-03-04T08:34:56.727Z,101383.69
2023-03-04T08:36:58.215Z,101387.59
2023-03-04T08:38:59.778Z,101386.72
2023-03-04T08:41:03.081Z,101388.00
2023-03-04T08:43:04.655Z,101385.97
2023-03-04T08:45:07.249Z,101384.56
2023-03-04T08:47:08.784Z,101382.31
2023-03-04T08:49:11.938Z,101382.91
2023-03-04T08:51:14.739Z,101379.56
2023-03-04T08:53:17.825Z,101381.28
2023-03-04T08:55:19.463Z,101395.69
2023-03-04T08:57:22.538Z,101386.03
2023-03-04T08:59:24.473Z,101387.16
2023-03-04T09:01:26.044Z,101385.22
2023-03-04T09:03:27.877Z,101385.22
2023-03-04T09:05:29.762Z,101386.03
2023-03-04T09:07:31.346Z,101388.34
2023-03-04T09:09:33.046Z,101389.09
2023-03-04T09:11:35.027Z,101388.47
2023-03-04T09:13:38.015Z,101391.25
2023-03-04T09:15:44.473Z,101388.69
2023-03-04T09:17:46.170Z,101386.59
2023-03-04T09:19:47.766Z,101384.44
2023-03-04T09:21:49.366Z,101392.47
2023-03-04T09:23:50.874Z,101391.19
2023-03-04T09:25:52.547Z,101387.81
2023-03-04T09:27:54.255Z,101395.56
2023-03-04T09:29:57.201Z,101399.25
2023-03-04T09:31:58.747Z,101391.16
2023-03-04T09:34:00.681Z,101389.97
2023-03-04T09:36:02.232Z,101391.97
2023-03-04T09:38:03.962Z,101392.91
2023-03-04T09:40:07.511Z,101390.53
2023-03-04T09:42:15.075Z,101392.44
2023-03-04T09:44:23.216Z,101393.25
2023-03-04T09:46:32.621Z,101391.63
2023-03-04T09:48:40.215Z,101389.91
2023-03-04T09:50:51.655Z,101386.63
2023-03-04T09:53:04.979Z,101391.06
2023-03-04T09:55:20.463Z,101392.34
2023-03-04T09:57:28.184Z,101399.41
2023-03-04T09:59:35.460Z,101395.16
2023-03-04T10:01:45.825Z,101399.16
2023-03-04T10:03:51.725Z,101396.13
2023-03-04T10:05:56.423Z,101400.34
2023-03-04T10:08:00.666Z,101403.22
2023-03-04T10:10:04.754Z,101398.69
2023-03-04T10:12:11.992Z,101401.13
2023-03-04T10:14:31.440Z,101395.09
2023-03-04T10:16:39.907Z,101401.84
2023-03-04T10:18:50.430Z,101396.63
2023-03-04T10:20:56.471Z,101394.75
2023-03-04T10:23:05.775Z,101398.03
2023-03-04T10:25:19.595Z,101395.25
2023-03-04T10:27:21.195Z,101399.31
2023-03-04T10:29:24.613Z,101389.91
2023-03-04T10:31:32.604Z,101390.38
2023-03-04T10:33:36.510Z,101388.03
2023-03-04T10:35:41.506Z,101391.91
2023-03-04T10:37:45.939Z,101391.06
2023-03-04T10:39:49.750Z,101382.22
2023-03-04T10:41:59.578Z,101386.31
2023-03-04T10:44:03.979Z,101386.88
2023-03-04T10:46:05.630Z,101387.00
2023-03-04T10:48:19.354Z,101386.53
2023-03-04T10:50:26.767Z,101389.81
2023-03-04T10:52:32.050Z,101379.88
2023-03-04T10:54:40.816Z,101380.03
2023-03-04T10:56:52.363Z,101382.25
2023-03-04T10:58:53.901Z,101381.75
2023-03-04T11:01:05.742Z,101375.34
2023-03-04T11:03:23.784Z,101369.97
2023-03-04T11:05:26.013Z,101368.34
2023-03-04T11:07:27.784Z,101369.63
2023-03-04T11:09:31.589Z,101361.00
2023-03-04T11:11:41.692Z,101366.50
2023-03-04T11:13:50.758Z,101359.13
2023-03-04T11:15:56.258Z,101354.38
2023-03-04T11:18:03.172Z,101357.63
2023-03-04T11:20:14.400Z,101354.28
2023-03-04T11:22:18.196Z,101349.97
2023-03-04T11:24:28.841Z,101351.84
2023-03-04T11:26:36.356Z,101343.53
2023-03-04T11:28:45.073Z,101335.75
2023-03-04T11:30:50.524Z,101339.22
2023-03-04T11:32:55.780Z,101337.22
2023-03-04T11:35:01.437Z,101332.31
2023-03-04T11:37:08.469Z,101331.59
2023-03-04T11:39:20.339Z,101332.53
2023-03-04T11:41:30.515Z,101331.59
2023-03-04T11:43:36.493Z,101339.25
2023-03-04T11:46:02.273Z,101332.94
2023-03-04T11:48:13.072Z,101330.59
2023-03-04T11:50:29.843Z,101326.63
2023-03-04T11:52:51.943Z,101336.63
2023-03-04T11:55:06.124Z,101323.31
2023-03-04T11:57:12.910Z,101322.53
2023-03-04T11:59:29.095Z,101322.53
2023-03-04T12:01:42.463Z,101327.34
2023-03-04T12:04:00.099Z,101315.16
2023-03-04T12:06:10.361Z,101315.06
2023-03-04T12:08:28.132Z,101309.47
2023-03-04T12:10:38.062Z,101305.56
2023-03-04T12:12:54.646Z,101301.47
2023-03-04T12:15:07.130Z,101301.72
2023-03-04T12:17:34.782Z,101292.47
2023-03-04T12:19:50.850Z,101291.25
2023-03-04T12:22:19.326Z,101287.50
2023-03-04T12:24:57.467Z,101293.13
2023-03-04T12:27:09.076Z,101290.06
2023-03-04T12:29:20.222Z,101289.56
2023-03-04T12:31:34.103Z,101287.31
2023-03-04T12:33:48.897Z,101282.03
2023-03-04T12:35:56.554Z,101283.41
2023-03-04T12:38:19.515Z,101284.31
2023-03-04T12:40:34.944Z,101280.25
2023-03-04T12:42:46.059Z,101280.31
2023-03-04T12:44:58.393Z,101281.03
2023-03-04T12:47:17.879Z,101265.66
2023-03-04T12:49:37.510Z,101274.88
2023-03-04T12:51:49.933Z,101273.78
2023-03-04T12:54:01.229Z,101271.94
2023-03-04T12:56:10.206Z,101265.72
2023-03-04T12:58:16.488Z,101266.56
2023-03-04T13:00:30.338Z,101266.97
2023-03-04T13:02:52.757Z,101261.44
2023-03-04T13:05:03.406Z,101265.19
2023-03-04T13:07:16.475Z,101259.06
2023-03-04T13:09:24.403Z,101256.06
2023-03-04T13:11:54.752Z,101259.28
2023-03-04T13:14:02.226Z,101250.19
2023-03-04T13:16:06.075Z,101251.06
2023-03-04T13:18:34.527Z,101250.34
2023-03-04T13:20:39.340Z,101253.38
2023-03-04T13:22:53.496Z,101248.66
2023-03-04T13:24:57.363Z,101260.28
2023-03-04T13:26:59.369Z,101248.81
2023-03-04T13:29:32.240Z,101244.56
2023-03-04T13:32:01.278Z,101239.50
2023-03-04T13:34:04.890Z,101241.16
2023-03-04T13:36:26.224Z,101236.00
2023-03-04T13:38:33.692Z,101233.72
2023-03-04T13:40:36.678Z,101234.78
2023-03-04T13:42:40.390Z,101238.63
2023-03-04T13:45:00.113Z,101233.50
2023-03-04T13:47:09.129Z,101228.13
2023-03-04T13:49:22.380Z,101225.50
2023-03-04T13:51:29.936Z,101224.34
2023-03-04T13:53:43.818Z,101220.06
2023-03-04T13:56:12.101Z,101220.06
2023-03-04T13:58:20.472Z,101214.69
2023-03-04T14:00:22.665Z,101215.19
2023-03-04T14:02:25.628Z,101204.19
2023-03-04T14:04:32.827Z,101208.41
2023-03-04T14:06:34.448Z,101206.53
2023-03-04T14:08:36.178Z,101206.28
2023-03-04T14:10:37.705Z,101208.41
2023-03-04T14:12:44.654Z,101210.28
2023-03-04T14:14:50.500Z,101208.97
2023-03-04T14:16:56.094Z,101211.09
2023-03-04T14:18:59.580Z,101198.66
2023-03-04T14:21:02.769Z,101207.47
2023-03-04T14:23:22.627Z,101202.81
2023-03-04T14:25:26.632Z,101195.25
2023-03-04T14:27:29.210Z,101192.31
2023-03-04T14:29:31.507Z,101192.41
2023-03-04T14:31:35.881Z,101190.19
2023-03-04T14:33:40.101Z,101189.97
2023-03-04T14:35:47.206Z,101193.13
2023-03-04T14:37:57.353Z,101185.66
2023-03-04T14:40:00.298Z,101184.59
2023-03-04T14:42:08.852Z,101184.59
2023-03-04T14:44:19.189Z,101182.97
2023-03-04T14:46:22.193Z,101178.66
2023-03-04T14:48:27.876Z,101176.94
2023-03-04T14:50:37.352Z,101181.41
2023-03-04T14:52:41.790Z,101175.06
2023-03-04T14:55:00.846Z,101163.59
2023-03-04T14:57:21.487Z,101169.22
2023-03-04T14:59:31.054Z,101167.91
2023-03-04T15:01:34.332Z,101157.94
2023-03-04T15:03:36.301Z,101157.72
2023-03-04T15:05:37.968Z,101150.56
2023-03-04T15:07:41.721Z,101151.78
2023-03-04T15:09:50.756Z,101146.31
2023-03-04T15:11:57.493Z,101157.63
2023-03-04T15:14:00.070Z,101151.22
2023-03-04T15:16:01.930Z,101156.16
2023-03-04T15:18:04.840Z,101146.28
2023-03-04T15:20:21.847Z,101143.91
2023-03-04T15:22:23.580Z,101140.16
2023-03-04T15:24:25.309Z,101140.91
2023-03-04T15:26:28.439Z,101139.44
2023-03-04T15:28:33.972Z,101134.38
2023-03-04T15:30:36.092Z,101130.81
2023-03-04T15:32:37.745Z,101135.44
2023-03-04T15:34:39.468Z,101136.00
2023-03-04T15:36:42.831Z,101142.75
2023-03-04T15:38:47.073Z,101138.13
2023-03-04T15:40:48.714Z,101140.34
2023-03-04T15:42:51.923Z,101138.72
2023-03-04T15:44:53.532Z,101140.50
2023-03-04T15:46:55.081Z,101146.38
2023-03-04T15:48:56.692Z,101136.44
2023-03-04T15:51:00.878Z,101137.44
2023-03-04T15:53:04.617Z,101134.75
2023-03-04T15:55:07.698Z,101133.38
2023-03-04T15:57:18.589Z,101128.19
2023-03-04T15:59:21.559Z,101138.97
2023-03-04T16:01:26.167Z,101137.13
2023-03-04T16:03:28.891Z,101135.88
2023-03-04T16:05:31.267Z,101133.47
2023-03-04T16:07:33.993Z,101128.25
2023-03-04T16:09:35.609Z,101132.91
2023-03-04T16:11:40.187Z,101124.03
2023-03-04T16:13:42.047Z,101118.97
2023-03-04T16:15:45.450Z,101126.63
2023-03-04T16:17:47.389Z,101125.56
2023-03-04T16:19:48.986Z,101126.94
2023-03-04T16:21:50.561Z,101118.25
2023-03-04T16:23:53.133Z,101130.31
2023-03-04T16:25:56.410Z,101125.75
2023-03-04T16:27:58.385Z,101120.94
2023-03-04T16:29:59.927Z,101126.06
2023-03-04T16:32:02.945Z,101122.09
2023-03-04T16:34:04.531Z,101123.47
2023-03-04T16:36:14.378Z,101122.66
2023-03-04T16:38:23.087Z,101116.78
2023-03-04T16:40:27.112Z,101122.88
2023-03-04T16:42:28.634Z,101120.94
2023-03-04T16:44:30.171Z,101121.22
2023-03-04T16:46:34.653Z,101122.00
2023-03-04T16:48:37.910Z,101117.69
2023-03-04T16:50:40.042Z,101121.78
2023-03-04T16:52:44.558Z,101117.53
2023-03-04T16:54:46.756Z,101116.56
2023-03-04T16:56:48.354Z,101125.69
2023-03-04T16:58:50.412Z,101124.38
2023-03-04T17:00:51.939Z,101115.84
2023-03-04T17:02:55.847Z,101120.16
2023-03-04T17:04:58.965Z,101118.25
2023-03-04T17:07:00.537Z,101123.63
2023-03-04T17:09:02.132Z,101120.47
2023-03-04T17:11:03.787Z,101128.75
2023-03-04T17:13:05.816Z,101127.16
2023-03-04T17:15:08.380Z,101122.88
2023-03-04T17:17:10.288Z,101128.84
2023-03-04T17:19:11.838Z,101129.41
2023-03-04T17:21:18.407Z,101126.47
2023-03-04T17:23:20.072Z,101118.09
2023-03-04T17:25:21.742Z,101124.53
2023-03-04T17:27:23.750Z,101122.88
2023-03-04T17:29:26.002Z,101126.06
2023-03-04T17:31:27.654Z,101121.78
2023-03-04T17:33:31.287Z,101122.84
2023-03-04T17:35:32.814Z,101129.25
2023-03-04T17:37:36.615Z,101128.69
2023-03-04T17:39:38.340Z,101121.94
2023-03-04T17:41:39.999Z,101134.31
2023-03-04T17:43:42.972Z,101129.19
2023-03-04T17:45:44.581Z,101121.84
2023-03-04T17:47:51.825Z,101125.84
2023-03-04T17:49:53.415Z,101125.75
2023-03-04T17:51:55.159Z,101120.16
2023-03-04T17:53:58.228Z,101123.34
2023-03-04T17:56:01.764Z,101120.34
2023-03-04T17:58:03.382Z,101121.13
2023-03-04T18:00:06.833Z,101125.69
2023-03-04T18:02:13.578Z,101122.19
2023-03-04T18:04:15.703Z,101127.34
2023-03-04T18:06:17.446Z,101121.97
2023-03-04T18:08:19.168Z,101123.81
2023-03-04T18:10:22.104Z,101119.19
2023-03-04T18:12:23.630Z,101116.97
2023-03-04T18:14:25.347Z,101121.13
2023-03-04T18:16:27.218Z,101107.97
2023-03-04T18:18:28.836Z,101107.66
2023-03-04T18:20:30.444Z,101103.34
2023-03-04T18:22:32.067Z,101096.03
2023-03-04T18:24:33.652Z,101097.88
2023-03-04T18:26:36.703Z,101104.88
2023-03-04T18:28:38.572Z,101100.81
2023-03-04T18:30:40.272Z,101111.88
2023-03-04T18:32:51.337Z,101107.31
2023-03-04T18:34:53.667Z,101100.34
2023-03-04T18:36:55.379Z,101103.03
2023-03-04T18:38:57.056Z,101101.63
2023-03-04T18:40:59.363Z,101098.59
2023-03-04T18:43:02.247Z,101104.06
2023-03-04T18:45:04.669Z,101097.06
2023-03-04T18:47:06.859Z,101099.25
2023-03-04T18:49:09.136Z,101103.25
2023-03-04T18:51:10.688Z,101101.28
2023-03-04T18:53:12.203Z,101098.03
2023-03-04T18:55:14.193Z,101101.28
2023-03-04T18:57:15.749Z,101092.66
2023-03-04T18:59:22.001Z,101098.03
2023-03-04T19:01:24.932Z,101096.97
2023-03-04T19:03:26.597Z,101098.88
2023-03-04T19:05:31.799Z,101103.97
2023-03-04T19:07:33.520Z,101098.88
2023-03-04T19:09:35.379Z,101091.88
2023-03-04T19:11:37.364Z,101096.97
2023-03-04T19:13:38.900Z,101102.28
2023-03-04T19:15:41.786Z,101096.19
2023-03-04T19:17:44.232Z,101101.56
2023-03-04T19:19:45.808Z,101099.44
2023-03-04T19:21:47.482Z,101107.25
2023-03-04T19:23:51.923Z,101102.59
2023-03-04T19:25:53.512Z,101098.59
2023-03-04T19:27:55.107Z,101098.94
2023-03-04T19:29:56.774Z,101093.88
2023-03-04T19:31:59.823Z,101101.94
2023-03-04T19:34:01.376Z,101099.97
2023-03-04T19:36:04.428Z,101089.19
2023-03-04T19:38:06.020Z,101094.47
2023-03-04T19:40:08.760Z,101093.97
2023-03-04T19:42:10.552Z,101097.47
2023-03-04T19:44:12.130Z,101099.66
2023-03-04T19:46:14.369Z,101094.78
2023-03-04T19:48:17.444Z,101093.19
2023-03-04T19:50:19.192Z,101094.22
2023-03-04T19:52:20.915Z,101089.34
2023-03-04T19:54:22.685Z,101086.97
2023-03-04T19:56:24.506Z,101086.41
2023-03-04T19:58:26.079Z,101077.88
2023-03-04T20:00:27.819Z,101091.56
2023-03-04T20:02:29.506Z,101087.47
2023-03-04T20:04:32.617Z,101084.72
2023-03-04T20:06:35.509Z,101079.41
2023-03-04T20:08:38.448Z,101080.81
2023-03-04T20:10:40.154Z,101084.47
2023-03-04T20:12:41.775Z,101076.72
2023-03-04T20:14:43.282Z,101081.03
2023-03-04T20:16:44.896Z,101083.72
2023-03-04T20:18:46.662Z,101082.19
2023-03-04T20:20:49.547Z,101093.00
2023-03-04T20:22:51.096Z,101081.44
2023-03-04T20:24:52.778Z,101083.56
2023-03-04T20:26:54.377Z,101083.56
2023-03-04T20:28:55.899Z,101073.66
2023-03-04T20:31:10.621Z,101079.25
2023-03-04T20:33:12.187Z,101077.41
2023-03-04T20:35:13.740Z,101088.59
2023-03-04T20:37:16.936Z,101081.34
2023-03-04T20:39:28.725Z,101081.94
2023-03-04T20:41:31.983Z,101080.66
2023-03-04T20:43:33.600Z,101087.13
2023-03-04T20:45:35.886Z,101083.66
2023-03-04T20:47:39.533Z,101080.72
2023-03-04T20:49:41.337Z,101085.81
2023-03-04T20:51:43.242Z,101079.97
2023-03-04T20:53:46.463Z,101084.03
2023-03-04T20:55:48.065Z,101079.19
2023-03-04T20:57:49.646Z,101081.03
2023-03-04T20:59:51.288Z,101086.50
2023-03-04T21:01:53.638Z,101079.50
2023-03-04T21:03:55.534Z,101082.97
2023-03-04T21:06:02.706Z,101074.44
2023-03-04T21:08:04.723Z,101075.50
2023-03-04T21:10:08.765Z,101072.81
2023-03-04T21:12:10.685Z,101076.56
2023-03-04T21:14:14.056Z,101075.19
2023-03-04T21:16:17.138Z,101081.59
2023-03-04T21:18:19.134Z,101062.81
2023-03-04T21:20:20.991Z,101070.06
2023-03-04T21:22:22.674Z,101076.22
2023-03-04T21:24:26.009Z,101071.69
2023-03-04T21:26:29.177Z,101068.66
2023-03-04T21:28:30.735Z,101075.09
2023-03-04T21:30:32.261Z,101068.13
2023-03-04T21:32:34.132Z,101069.97
2023-03-04T21:34:39.567Z,101060.63
2023-03-04T21:36:41.502Z,101064.44
2023-03-04T21:38:44.527Z,101062.00
2023-03-04T21:40:46.134Z,101058.97
2023-03-04T21:42:49.045Z,101061.94
2023-03-04T21:44:51.835Z,101060.56
2023-03-04T21:46:53.979Z,101065.44
2023-03-04T21:48:55.652Z,101065.09
2023-03-04T21:51:01.689Z,101059.50
2023-03-04T21:53:03.306Z,101061.59
2023-03-04T21:55:05.448Z,101059.19
2023-03-04T21:57:07.090Z,101058.34
2023-03-04T21:59:11.887Z,101058.66
2023-03-04T22:01:14.642Z,101058.34
2023-03-04T22:03:16.453Z,101055.66
2023-03-04T22:05:19.175Z,101055.91
2023-03-04T22:07:20.781Z,101057.78
2023-03-04T22:09:22.376Z,101055.66
2023-03-04T22:11:24.304Z,101058.84
2023-03-04T22:13:25.846Z,101047.31
2023-03-04T22:15:28.937Z,101056.72
2023-03-04T22:17:30.549Z,101051.34
2023-03-04T22:19:32.767Z,101052.97
2023-03-04T22:21:34.380Z,101054.03
2023-03-04T22:23:36.212Z,101046.81
2023-03-04T22:25:39.737Z,101042.00
2023-03-04T22:27:41.373Z,101040.13
2023-03-04T22:29:46.003Z,101037.19
2023-03-04T22:31:48.983Z,101036.88
2023-03-04T22:33:50.672Z,101037.44
2023-03-04T22:35:52.751Z,101042.81
2023-03-04T22:37:54.590Z,101040.63
2023-03-04T22:39:57.136Z,101034.84
2023-03-04T22:41:58.676Z,101024.63
2023-03-04T22:44:00.338Z,101038.03
2023-03-04T22:46:11.966Z,101030.78
2023-03-04T22:48:14.945Z,101031.03
2023-03-04T22:50:17.427Z,101025.50
2023-03-04T22:52:19.124Z,101028.78
2023-03-04T22:54:20.662Z,101028.44
2023-03-04T22:56:22.427Z,101026.25
2023-03-04T22:58:24.120Z,101024.38
2023-03-04T23:00:27.842Z,101033.31
2023-03-04T23:02:29.542Z,101024.53
2023-03-04T23:04:32.742Z,101025.34
2023-03-04T23:06:34.832Z,101026.41
2023-03-04T23:08:38.432Z,101024.78
2023-03-04T23:10:42.180Z,101026.31
2023-03-04T23:12:43.901Z,101021.44
2023-03-04T23:14:45.460Z,101018.19
2023-03-04T23:16:47.145Z,101023.00
2023-03-04T23:18:49.225Z,101021.69
2023-03-04T23:20:52.119Z,101021.94
2023-03-04T23:22:53.702Z,101022.75
2023-03-04T23:24:55.267Z,101021.44
2023-03-04T23:26:57.050Z,101019.16
2023-03-04T23:29:00.625Z,101022.00
2023-03-04T23:31:04.259Z,101024.78
2023-03-04T23:33:07.079Z,101018.69
2023-03-04T23:35:09.296Z,101026.72
2023-03-04T23:37:12.269Z,101023.00
2023-03-04T23:39:13.838Z,101026.31